Terminal Aerodrome Forecast
Issued by NWS

Home | Current Version | Previous Version | Text Only | Print | Product List | Glossary On
Versions: 1 2 3 4 5 6 7 8 9 10 11 12
596
FTUS42 KTBW 120540
TAFRSW
TAF
KRSW 120540Z 1206/1306 VRB02KT 6SM BR SKC
     FM121400 VRB06KT P6SM SKC
     FM121800 26008KT P6SM SKC
     FM130000 28004KT P6SM SKC=

USA.gov is the U.S. government's official web portal to all federal, state and local government web resources and services.